createdAt,value
2022-10-01T10:34:23.276Z,96084.63
2022-10-01T10:35:26.119Z,96088.84
2022-10-01T10:36:31.000Z,96092.38
2022-10-01T10:37:36.834Z,96090.53
2022-10-01T10:38:38.305Z,96090.63
2022-10-01T10:47:46.322Z,96053.81
2022-10-01T10:48:58.568Z,96086.06
2022-10-01T10:50:06.487Z,96047.81
2022-10-01T10:51:08.084Z,96078.13
2022-10-01T10:52:30.597Z,96060.09
2022-10-01T10:53:45.936Z,96061.41
2022-10-01T10:54:50.234Z,96045.00
2022-10-01T10:56:02.424Z,96070.97
2022-10-01T10:57:31.443Z,96052.03
2022-10-01T10:58:37.939Z,96080.25
2022-10-01T10:59:39.347Z,96098.88
2022-10-01T11:00:52.427Z,96060.19
2022-10-01T11:01:54.070Z,96090.06
2022-10-01T11:30:41.100Z,96067.81
2022-10-01T11:31:52.252Z,96070.19
2022-10-01T12:07:35.983Z,96097.00
2022-10-01T12:08:40.198Z,96097.00
2022-10-01T12:09:56.925Z,96100.81
2022-10-01T12:30:23.093Z,96134.34
2022-10-01T12:31:30.123Z,96142.69
2022-10-01T12:48:58.089Z,96103.97
2022-10-01T12:50:07.441Z,96136.72
2022-10-01T12:51:30.121Z,96144.38
2022-10-01T13:01:31.075Z,96153.03
2022-10-01T13:02:35.817Z,96156.56
2022-10-01T13:04:11.030Z,96131.50
2022-10-01T13:05:24.403Z,96148.19
2022-10-01T13:06:25.798Z,96159.50
2022-10-01T13:07:32.890Z,96164.91
2022-10-01T13:08:38.080Z,96154.41
2022-10-01T13:15:06.727Z,96159.13
2022-10-01T13:16:18.920Z,96151.31
2022-10-01T13:17:26.246Z,96169.47
2022-10-01T13:18:43.029Z,96152.75
2022-10-01T13:19:44.652Z,96161.75
2022-10-01T13:21:14.718Z,96151.66
2022-10-01T13:22:22.069Z,96156.50
2022-10-01T13:23:47.873Z,96147.78
2022-10-01T13:25:08.427Z,96168.22
2022-10-01T13:26:32.321Z,96158.66
2022-10-01T13:27:47.203Z,96144.44
2022-10-01T13:29:01.629Z,96168.56
2022-10-01T13:30:26.405Z,96139.75
2022-10-01T13:31:37.126Z,96171.84
2022-10-01T13:33:01.108Z,96164.75
2022-10-01T13:39:04.713Z,96174.81
2022-10-01T13:40:21.490Z,96166.84
2022-10-01T13:41:27.223Z,96164.88
2022-10-01T13:42:43.885Z,96135.72
2022-10-01T13:43:58.177Z,96162.34
2022-10-01T13:45:04.716Z,96168.09
2022-10-01T13:46:09.155Z,96169.41
2022-10-01T13:52:49.620Z,96161.06
2022-10-01T13:54:00.628Z,96147.22
2022-10-01T13:55:02.433Z,96169.31
2022-10-01T13:56:05.414Z,96167.38
2022-10-01T13:57:10.733Z,96177.88
2022-10-01T13:58:34.041Z,96151.72
2022-10-01T13:59:37.653Z,96171.69
2022-10-01T14:00:48.525Z,96162.81
2022-10-01T14:01:50.009Z,96167.03
2022-10-01T14:03:21.306Z,96166.53
2022-10-01T14:04:33.148Z,96172.75
2022-10-01T14:14:42.913Z,96166.06
2022-10-01T14:15:59.933Z,96165.66
2022-10-01T14:17:01.692Z,96155.03
2022-10-01T14:18:16.852Z,96156.66
2022-10-01T14:28:09.888Z,96164.47
2022-10-01T14:29:44.857Z,96172.97
2022-10-01T14:31:19.810Z,96184.00
2022-10-01T14:32:58.670Z,96190.78
2022-10-01T14:39:07.619Z,96180.81
2022-10-01T14:40:23.646Z,96189.69
2022-10-01T14:41:26.072Z,96186.91
2022-10-01T14:42:27.510Z,96187.69
2022-10-01T14:43:31.366Z,96186.69
2022-10-01T14:44:46.721Z,96193.50
2022-10-01T14:46:05.986Z,96193.19
2022-10-01T14:47:19.769Z,96195.56
2022-10-01T15:02:35.563Z,96202.16
2022-10-01T15:03:38.810Z,96212.44
2022-10-01T15:04:46.115Z,96183.63
2022-10-01T15:16:10.487Z,96204.97
2022-10-01T15:17:21.169Z,96219.50
2022-10-01T15:18:22.897Z,96216.94
2022-10-01T15:41:42.678Z,96224.44
2022-10-01T15:43:11.720Z,96228.75
2022-10-01T15:57:07.370Z,96241.06
2022-10-01T15:58:31.274Z,96237.44
2022-10-01T15:59:33.972Z,96242.28
2022-10-01T16:00:52.908Z,96239.75
2022-10-01T16:01:54.531Z,96246.84
2022-10-01T16:02:57.881Z,96252.72
2022-10-01T16:04:09.179Z,96235.41
